Time;durP1;ratioP1;P1;durP2;ratioP2;P2;SDS_P1;SDS_P2;PMS_P1;PMS_P2;Temp;Humidity;BMP_temperature;BMP_pressure;BME280_temperature;BME280_humidity;BME280_pressure;Samples;Min_cycle;Max_cycle;Signal;HPM_P1;HPM_P2
2022/01/27 00:01:30;;;;;;;0.30;0.30;;;;;;;-0.95;65.42;96038.78;5031341;28;20545;-54
2022/01/27 00:06:49;;;;;;;0.20;0.13;;;;;;;-0.73;65.87;96043.06;5093330;28;20844;-54
2022/01/27 00:09:26;;;;;;;0.20;0.20;;;;;;;-0.47;63.74;96046.00;5093688;28;20796;-54
2022/01/27 00:12:16;;;;;;;0.20;0.20;;;;;;;-0.78;65.84;96051.44;5092502;28;20435;-54
2022/01/27 00:17:47;;;;;;;0.23;0.17;;;;;;;-0.42;62.01;96042.84;5092777;28;20807;-54
2022/01/27 00:20:20;;;;;;;1.03;1.03;;;;;;;-0.51;61.82;96036.97;5093235;28;20432;-54
2022/01/27 00:22:49;;;;;;;0.20;0.20;;;;;;;0.18;58.62;96037.25;5093447;28;20543;-55
2022/01/27 00:25:17;;;;;;;0.20;0.20;;;;;;;-1.29;59.10;95831.34;5093154;28;20428;-54
2022/01/27 00:27:47;;;;;;;0.20;0.20;;;;;;;0.38;56.92;96036.41;5093675;28;20506;-55
2022/01/27 00:30:18;;;;;;;0.20;0.20;;;;;;;-0.15;55.35;95897.06;5093390;28;20460;-54
2022/01/27 00:32:46;;;;;;;0.20;0.20;;;;;;;0.98;54.26;96041.06;5092122;28;20456;-55
2022/01/27 00:35:15;;;;;;;0.20;0.20;;;;;;;0.42;53.22;95940.38;5091258;28;21032;-55
2022/01/27 00:37:43;;;;;;;0.20;0.13;;;;;;;0.88;53.61;96029.34;5093336;28;20485;-55
2022/01/27 00:40:13;;;;;;;0.20;0.20;;;;;;;1.10;53.00;96031.69;5092870;28;20968;-55
2022/01/27 00:42:43;;;;;;;0.20;0.20;;;;;;;1.18;51.91;96033.34;5092857;28;20984;-54
2022/01/27 00:45:14;;;;;;;0.20;0.20;;;;;;;0.85;52.78;96034.94;5092259;28;20504;-54
2022/01/27 00:47:42;;;;;;;0.20;0.20;;;;;;;-0.36;57.76;96035.13;5091985;28;20479;-55
2022/01/27 00:50:17;;;;;;;0.87;0.87;;;;;;;-1.50;63.75;95893.66;5091138;28;20420;-54
2022/01/27 00:52:50;;;;;;;0.20;0.20;;;;;;;-0.14;60.98;96034.16;5092443;28;20432;-54
2022/01/27 00:55:41;;;;;;;0.20;0.20;;;;;;;0.25;58.17;95973.75;5092652;28;20477;-54
2022/01/27 00:58:24;;;;;;;0.20;0.20;;;;;;;0.62;56.90;96025.56;5093084;28;20511;-54
2022/01/27 01:01:06;;;;;;;0.50;0.50;;;;;;;0.26;58.23;96021.47;5092181;28;20464;-54
2022/01/27 01:03:56;;;;;;;1.90;1.90;;;;;;;0.48;58.81;96023.84;5092628;28;20478;-54
2022/01/27 01:06:36;;;;;;;0.47;0.47;;;;;;;0.62;57.32;95993.47;5092686;28;20429;-54
2022/01/27 01:31:15;;;;;;;0.20;0.20;;;;;;;-0.35;52.92;95854.44;5092240;28;20892;-54
2022/01/27 01:33:55;;;;;;;0.20;0.20;;;;;;;0.73;52.24;96008.59;5091687;28;20428;-54
2022/01/27 01:36:35;;;;;;;0.20;0.10;;;;;;;0.73;52.15;96021.66;5092413;28;20498;-55
2022/01/27 01:39:08;;;;;;;0.20;0.20;;;;;;;-0.20;52.25;95883.78;5092085;28;20998;-54
2022/01/27 01:41:37;;;;;;;0.20;0.17;;;;;;;0.63;52.82;96015.97;5092183;28;20542;-54
2022/01/27 01:44:06;;;;;;;0.20;0.20;;;;;;;0.46;52.31;95978.09;5092017;28;20412;-54
2022/01/27 01:46:35;;;;;;;0.20;0.20;;;;;;;0.34;52.11;95963.97;5091179;28;20478;-55
2022/01/27 01:49:25;;;;;;;0.20;0.20;;;;;;;0.56;52.31;95989.00;5091200;28;20538;-54
2022/01/27 01:52:25;;;;;;;0.20;0.20;;;;;;;0.62;52.51;95999.50;5092161;28;20486;-54
2022/01/27 01:54:55;;;;;;;0.20;0.20;;;;;;;-0.19;55.02;96020.06;5091856;28;20524;-54
2022/01/27 01:57:24;;;;;;;0.20;0.20;;;;;;;-0.70;61.11;96017.50;5092197;28;20440;-54
2022/01/27 01:59:53;;;;;;;0.20;0.20;;;;;;;-2.29;65.48;95829.41;5091026;28;20449;-54
2022/01/27 02:02:22;;;;;;;1.57;0.97;;;;;;;-2.06;68.60;95875.09;5091997;28;20546;-54
2022/01/27 02:04:54;;;;;;;0.63;0.63;;;;;;;-1.87;72.87;95928.31;5092252;28;20477;-55
2022/01/27 02:07:33;;;;;;;0.20;0.10;;;;;;;-0.40;70.13;96023.44;5091673;28;20497;-54
2022/01/27 02:10:30;;;;;;;0.20;0.20;;;;;;;-0.08;64.43;96012.53;5090671;28;20448;-54
2022/01/27 02:18:32;;;;;;;0.20;0.20;;;;;;;0.23;61.48;96035.69;5091344;28;20428;-54
2022/01/27 02:21:02;;;;;;;0.30;0.30;;;;;;;0.16;61.63;96028.81;5091863;28;20432;-54
2022/01/27 02:23:31;;;;;;;1.80;1.70;;;;;;;-0.57;62.67;95956.16;5092046;28;20482;-54
2022/01/27 02:26:00;;;;;;;1.20;1.20;;;;;;;-0.59;61.84;95930.31;5092098;28;20420;-55
2022/01/27 02:28:29;;;;;;;0.30;0.20;;;;;;;-6.65;62.26;95093.06;5091629;28;20432;-54
2022/01/27 02:30:57;;;;;;;0.20;0.20;;;;;;;-0.81;62.68;95918.28;5091587;28;20428;-55
2022/01/27 02:33:32;;;;;;;0.30;0.30;;;;;;;-0.20;63.04;96024.47;5091859;28;20923;-55
2022/01/27 02:36:10;;;;;;;0.20;0.20;;;;;;;-0.24;63.12;96006.78;5091711;28;20451;-54
2022/01/27 02:38:39;;;;;;;0.20;0.20;;;;;;;0.02;62.04;96025.28;5091520;28;20436;-54
2022/01/27 02:41:08;;;;;;;0.20;0.20;;;;;;;0.03;61.87;96028.72;5091794;28;20966;-54
2022/01/27 02:43:37;;;;;;;0.30;0.30;;;;;;;-0.28;61.20;95988.09;5091699;28;20499;-54
2022/01/27 02:46:18;;;;;;;0.30;0.20;;;;;;;0.39;60.70;96029.41;5095243;28;20503;-54
2022/01/27 02:48:46;;;;;;;0.20;0.10;;;;;;;0.20;61.36;96030.06;5094659;28;20424;-55
2022/01/27 02:51:16;;;;;;;0.30;0.30;;;;;;;-0.14;62.58;96036.75;5095445;28;20432;-54
2022/01/27 02:53:54;;;;;;;0.20;0.17;;;;;;;-1.04;64.51;95952.25;5095551;28;20436;-54
2022/01/27 02:56:22;;;;;;;0.30;0.30;;;;;;;-0.13;65.26;96024.53;5095590;28;20428;-54
2022/01/27 02:58:51;;;;;;;0.20;0.20;;;;;;;0.42;60.79;95988.13;5095594;28;20792;-55
2022/01/27 03:01:21;;;;;;;3.60;0.60;;;;;;;0.97;58.39;96036.84;5095236;28;20423;-54
2022/01/27 03:03:50;;;;;;;0.20;0.10;;;;;;;-5.02;57.52;95116.50;5094901;28;20467;-55
2022/01/27 03:06:20;;;;;;;0.20;0.20;;;;;;;0.89;57.80;96041.38;5093818;28;20436;-55
2022/01/27 03:08:48;;;;;;;0.30;0.30;;;;;;;1.09;56.94;96029.25;5093865;28;20452;-55
2022/01/27 03:11:34;;;;;;;0.20;0.20;;;;;;;0.83;57.38;96019.50;5095296;28;20485;-55
2022/01/27 03:14:02;;;;;;;0.43;0.43;;;;;;;0.69;58.65;96129.97;5094952;28;20951;-55
2022/01/27 03:16:31;;;;;;;0.20;0.20;;;;;;;0.34;58.90;95984.84;5095111;28;20436;-54
2022/01/27 03:19:00;;;;;;;0.30;0.20;;;;;;;0.56;59.26;96000.25;5095195;28;20434;-54
2022/01/27 03:21:30;;;;;;;1.70;1.70;;;;;;;0.67;58.79;96011.97;5094180;28;20428;-55
2022/01/27 03:23:59;;;;;;;0.37;0.37;;;;;;;0.57;58.94;95974.97;5093959;28;20996;-55
2022/01/27 03:26:28;;;;;;;0.30;0.20;;;;;;;0.39;61.40;96013.75;5093562;28;20440;-55
2022/01/27 03:28:57;;;;;;;0.30;0.20;;;;;;;-5.49;64.27;95184.75;5094860;28;20459;-55
2022/01/27 03:31:26;;;;;;;0.20;0.20;;;;;;;0.11;61.37;95947.75;5094991;28;20521;-55
2022/01/27 03:33:55;;;;;;;0.20;0.20;;;;;;;-0.38;60.10;95898.28;5094876;28;20486;-55
2022/01/27 03:36:25;;;;;;;0.20;0.20;;;;;;;0.46;61.38;96027.66;5094600;28;20428;-54
2022/01/27 03:38:55;;;;;;;0.20;0.20;;;;;;;0.41;62.11;96030.81;5094989;28;20497;-53
2022/01/27 03:41:23;;;;;;;0.80;0.70;;;;;;;0.23;61.01;95999.19;5094219;28;20510;-53
2022/01/27 03:43:52;;;;;;;0.20;0.20;;;;;;;0.27;56.82;95900.56;5093587;28;20500;-54
2022/01/27 03:46:21;;;;;;;0.30;0.30;;;;;;;0.57;58.12;96020.13;5093407;28;20460;-54
2022/01/27 03:48:49;;;;;;;0.40;0.40;;;;;;;0.48;59.27;96029.06;5093297;28;20428;-54
2022/01/27 03:51:18;;;;;;;0.20;0.20;;;;;;;0.27;61.44;96015.28;5094421;28;20405;-54
2022/01/27 03:53:47;;;;;;;0.30;0.30;;;;;;;0.02;62.03;95991.41;5094377;28;20436;-53
2022/01/27 03:56:18;;;;;;;0.57;0.57;;;;;;;0.42;61.10;96022.03;5093790;28;20417;-54
2022/01/27 03:58:46;;;;;;;6.03;3.20;;;;;;;-0.68;61.33;95876.75;5094370;28;20464;-54
2022/01/27 04:01:14;;;;;;;0.30;0.20;;;;;;;-0.01;64.79;96030.88;5094132;28;20477;-53
2022/01/27 04:03:44;;;;;;;0.63;0.63;;;;;;;-0.12;66.67;96029.56;5093948;28;20490;-54
2022/01/27 04:06:19;;;;;;;4.87;1.83;;;;;;;0.09;66.32;96033.16;5093436;28;20420;-53
2022/01/27 04:08:56;;;;;;;0.70;0.70;;;;;;;0.13;66.13;96008.34;5094176;28;20424;-53
2022/01/27 04:11:27;;;;;;;0.30;0.30;;;;;;;0.25;65.12;96023.28;5093918;28;20432;-53
2022/01/27 04:13:56;;;;;;;0.30;0.20;;;;;;;0.34;65.06;96022.16;5093745;28;20432;-53
2022/01/27 04:16:24;;;;;;;0.20;0.10;;;;;;;-0.71;64.83;95888.34;5093867;28;20432;-53
2022/01/27 04:18:53;;;;;;;0.83;0.83;;;;;;;0.50;64.49;96029.72;5093990;28;20474;-53
2022/01/27 04:21:22;;;;;;;0.73;0.73;;;;;;;0.46;64.48;96036.28;5093614;28;20989;-53
2022/01/27 04:23:51;;;;;;;0.20;0.20;;;;;;;0.73;62.19;96041.69;5093484;28;20943;-53
2022/01/27 04:26:26;;;;;;;0.20;0.20;;;;;;;0.49;63.94;96033.31;5093674;28;20432;-53
2022/01/27 04:29:05;;;;;;;0.20;0.20;;;;;;;0.33;64.32;96043.22;5094082;28;20842;-54
2022/01/27 04:31:34;;;;;;;0.70;0.70;;;;;;;0.34;62.80;96037.78;5093562;28;21001;-54
2022/01/27 04:34:02;;;;;;;0.20;0.20;;;;;;;0.38;62.50;96031.19;5093712;28;20460;-54
2022/01/27 04:36:33;;;;;;;1.13;0.40;;;;;;;0.13;62.05;95972.66;5093440;28;20460;-54
2022/01/27 04:39:10;;;;;;;1.37;0.63;;;;;;;0.54;62.40;96025.72;5093345;28;20460;-54
2022/01/27 04:41:59;;;;;;;0.77;0.77;;;;;;;0.49;62.64;96027.28;5093123;28;20486;-54
2022/01/27 04:44:36;;;;;;;0.20;0.17;;;;;;;-0.33;66.34;95969.63;5093304;28;20499;-54
2022/01/27 04:47:10;;;;;;;1.60;1.60;;;;;;;-0.72;74.56;96037.72;5091744;28;21199;-54
2022/01/27 04:49:54;;;;;;;0.57;0.57;;;;;;;-6.78;80.71;95198.44;5093005;28;20819;-54
2022/01/27 04:52:24;;;;;;;0.53;0.50;;;;;;;-1.42;86.87;96045.13;5093211;28;20466;-54
2022/01/27 04:54:58;;;;;;;0.20;0.20;;;;;;;-1.03;85.21;96044.91;5093406;28;20497;-54
2022/01/27 04:57:30;;;;;;;0.20;0.20;;;;;;;-1.72;81.47;95877.16;5092652;28;20940;-55
2022/01/27 05:00:01;;;;;;;0.57;0.57;;;;;;;-1.48;78.10;96017.25;5092589;28;20432;-55
2022/01/27 05:02:38;;;;;;;0.20;0.20;;;;;;;-0.70;76.65;96004.50;5091490;28;20464;-56
2022/01/27 05:05:07;;;;;;;1.43;1.43;;;;;;;-0.67;77.16;96042.38;5092583;28;20479;-55
2022/01/27 05:07:56;;;;;;;0.60;0.60;;;;;;;-0.92;78.97;96046.25;5092293;28;20485;-55
2022/01/27 05:10:32;;;;;;;0.30;0.30;;;;;;;-1.06;80.34;96031.47;5092752;28;20463;-55
2022/01/27 05:13:13;;;;;;;2.63;0.70;;;;;;;-2.22;78.38;95836.31;5091624;28;20520;-55
2022/01/27 05:16:00;;;;;;;0.20;0.10;;;;;;;-0.38;75.62;96051.94;5092664;28;20511;-54
2022/01/27 05:18:28;;;;;;;0.67;0.67;;;;;;;-0.21;73.61;96054.13;5093003;28;20431;-55
2022/01/27 05:20:57;;;;;;;0.50;0.50;;;;;;;-0.46;74.85;96019.00;5092716;28;20534;-54
2022/01/27 05:23:27;;;;;;;0.30;0.30;;;;;;;-0.21;73.48;96050.69;5092479;28;20463;-55
2022/01/27 05:25:56;;;;;;;0.30;0.30;;;;;;;-0.35;76.02;96052.34;5092474;28;20425;-53
2022/01/27 05:28:26;;;;;;;0.30;0.30;;;;;;;-0.51;75.71;96051.78;5092411;28;20478;-55
2022/01/27 05:30:55;;;;;;;0.20;0.20;;;;;;;-0.55;76.03;96063.53;5092345;28;20905;-55
2022/01/27 05:33:25;;;;;;;0.30;0.27;;;;;;;-0.80;77.68;96063.81;5092306;28;20425;-53
2022/01/27 05:35:53;;;;;;;0.20;0.20;;;;;;;-0.77;77.21;96135.53;5092363;28;20441;-54
2022/01/27 05:38:22;;;;;;;2.17;2.10;;;;;;;-0.97;77.46;96066.78;5092568;28;20460;-53
2022/01/27 05:40:51;;;;;;;0.30;0.27;;;;;;;-0.82;76.08;96059.78;5092123;28;20437;-54
2022/01/27 05:43:20;;;;;;;0.30;0.30;;;;;;;-0.96;73.68;96024.19;5092372;28;20439;-54
2022/01/27 05:45:48;;;;;;;0.40;0.40;;;;;;;-0.77;72.33;96021.03;5091013;28;20477;-54
2022/01/27 05:48:17;;;;;;;0.20;0.20;;;;;;;0.02;66.97;96043.53;5091909;28;20482;-54
2022/01/27 05:50:47;;;;;;;1.17;1.07;;;;;;;-0.28;66.18;96045.41;5092187;28;20511;-54
2022/01/27 05:53:18;;;;;;;0.20;0.20;;;;;;;-0.06;66.80;96048.84;5091988;28;20452;-54
2022/01/27 05:55:47;;;;;;;0.27;0.23;;;;;;;0.15;64.86;96051.47;5092273;28;20919;-54
2022/01/27 05:58:16;;;;;;;0.20;0.20;;;;;;;-0.30;65.91;96047.41;5091786;28;20462;-54
2022/01/27 06:00:45;;;;;;;0.20;0.20;;;;;;;0.02;65.21;96046.13;5092003;28;20534;-55
2022/01/27 06:03:14;;;;;;;0.40;0.40;;;;;;;0.10;64.92;96048.63;5092026;28;20493;-54
2022/01/27 06:05:42;;;;;;;0.20;0.10;;;;;;;-5.35;65.29;95234.84;5092143;28;20464;-54
2022/01/27 06:08:12;;;;;;;0.30;0.20;;;;;;;-0.47;69.54;96059.03;5091859;28;20436;-54
2022/01/27 06:10:41;;;;;;;0.20;0.20;;;;;;;-0.49;70.76;96060.19;5092228;28;20451;-54
2022/01/27 06:13:10;;;;;;;0.30;0.20;;;;;;;-0.82;70.75;96038.97;5092088;28;20429;-54
2022/01/27 06:15:39;;;;;;;0.20;0.20;;;;;;;-0.45;70.86;96080.47;5091739;28;20489;-54
2022/01/27 06:18:07;;;;;;;9.53;1.50;;;;;;;-0.70;71.14;96019.28;5092156;28;20995;-54
2022/01/27 06:20:37;;;;;;;0.70;0.70;;;;;;;-0.89;70.51;96053.69;5095830;28;20436;-54
2022/01/27 06:23:06;;;;;;;0.30;0.23;;;;;;;-0.34;70.01;96103.47;5095703;28;20998;-54
2022/01/27 06:25:36;;;;;;;0.30;0.30;;;;;;;-0.20;69.17;96101.78;5095718;28;20479;-54
2022/01/27 06:28:05;;;;;;;0.83;0.57;;;;;;;-0.15;65.90;96087.22;5095776;28;20490;-54
2022/01/27 06:30:35;;;;;;;0.87;0.87;;;;;;;-0.38;67.22;96060.53;5096150;28;20786;-54
2022/01/27 06:33:04;;;;;;;0.20;0.10;;;;;;;-0.08;66.70;96115.97;5095863;28;20848;-54
2022/01/27 06:35:33;;;;;;;0.30;0.30;;;;;;;-0.31;66.31;96065.81;5095790;28;20848;-54
2022/01/27 06:38:01;;;;;;;0.20;0.20;;;;;;;0.21;62.63;96087.19;5095466;28;20839;-54
2022/01/27 06:40:30;;;;;;;0.80;0.80;;;;;;;0.16;62.74;96112.22;5094873;28;20466;-54
2022/01/27 06:43:00;;;;;;;0.73;0.67;;;;;;;-0.28;64.21;96101.94;5095415;28;20485;-54
2022/01/27 06:45:30;;;;;;;1.70;1.70;;;;;;;-0.15;65.10;96115.88;5095273;28;20468;-54
2022/01/27 06:47:58;;;;;;;0.40;0.37;;;;;;;-0.59;64.85;96037.06;5094892;28;20460;-54
2022/01/27 06:50:27;;;;;;;0.40;0.40;;;;;;;0.06;65.53;96117.72;5095201;28;20424;-54
2022/01/27 06:52:55;;;;;;;0.50;0.50;;;;;;;-0.29;64.04;96049.03;5095430;28;20424;-54
2022/01/27 06:55:24;;;;;;;0.50;0.50;;;;;;;-0.26;65.75;96089.53;5095208;28;20428;-54
2022/01/27 06:57:52;;;;;;;0.97;0.97;;;;;;;-0.45;65.79;96045.81;5095079;28;20424;-54
2022/01/27 07:00:22;;;;;;;0.40;0.40;;;;;;;-0.02;65.25;96089.97;5094924;28;20523;-54
2022/01/27 07:02:51;;;;;;;0.43;0.43;;;;;;;0.14;65.30;96125.44;5094727;28;20971;-54
2022/01/27 07:05:19;;;;;;;0.57;0.57;;;;;;;-0.56;65.69;96054.94;5094785;28;20472;-54
2022/01/27 07:07:48;;;;;;;0.40;0.40;;;;;;;0.10;66.64;96132.03;5095324;28;20412;-54
2022/01/27 07:10:17;;;;;;;1.20;1.17;;;;;;;0.25;64.92;96106.72;5094891;28;20428;-54
2022/01/27 07:12:45;;;;;;;0.40;0.40;;;;;;;-0.03;63.37;96041.44;5094835;28;20459;-54
2022/01/27 07:15:13;;;;;;;0.40;0.40;;;;;;;0.41;64.93;96126.50;5094224;28;20860;-54
2022/01/27 07:17:43;;;;;;;2.83;2.83;;;;;;;0.60;62.78;96125.88;5094336;28;20817;-54
2022/01/27 07:20:13;;;;;;;1.53;1.53;;;;;;;0.66;61.79;96127.72;5094878;28;20460;-54
2022/01/27 07:22:45;;;;;;;0.20;0.20;;;;;;;0.66;61.12;96104.25;5093739;28;20507;-54
2022/01/27 07:25:14;;;;;;;0.20;0.20;;;;;;;0.31;61.29;96037.34;5094641;28;20480;-54
2022/01/27 07:27:44;;;;;;;0.80;0.80;;;;;;;1.18;58.87;96135.97;5094016;28;20428;-55
2022/01/27 07:30:13;;;;;;;0.30;0.23;;;;;;;1.43;57.67;96149.38;5093765;28;20478;-54
2022/01/27 07:32:42;;;;;;;10.13;2.27;;;;;;;1.25;57.54;96170.75;5094691;28;20424;-54
2022/01/27 07:35:11;;;;;;;0.30;0.20;;;;;;;1.43;57.27;96127.69;5094352;28;20482;-54
2022/01/27 07:37:41;;;;;;;1.00;1.00;;;;;;;1.63;56.80;96125.97;5094364;28;20481;-54
2022/01/27 07:40:11;;;;;;;0.90;0.90;;;;;;;1.43;57.24;96125.88;5094287;28;20515;-54
2022/01/27 07:42:40;;;;;;;0.27;0.23;;;;;;;-0.97;56.87;95811.84;5094254;28;20424;-54
2022/01/27 07:45:26;;;;;;;3.90;0.80;;;;;;;1.38;58.26;96135.28;5094173;28;20479;-54
2022/01/27 07:47:57;;;;;;;1.10;1.10;;;;;;;0.72;60.00;96140.03;5093472;28;20547;-55
2022/01/27 07:50:29;;;;;;;0.60;0.60;;;;;;;0.52;61.89;96128.63;5094424;28;20856;-54
2022/01/27 07:52:58;;;;;;;2.20;2.10;;;;;;;1.19;60.29;96134.16;5093886;28;20444;-54
2022/01/27 07:55:28;;;;;;;0.27;0.23;;;;;;;1.03;59.01;96111.78;5094382;28;20456;-53
2022/01/27 07:57:57;;;;;;;0.77;0.77;;;;;;;1.32;58.82;96128.22;5093851;28;20978;-53
2022/01/27 08:00:25;;;;;;;0.50;0.50;;;;;;;0.48;58.05;95987.34;5094208;28;20451;-53
2022/01/27 08:02:55;;;;;;;0.30;0.20;;;;;;;1.80;56.79;96124.63;5094191;28;20508;-53
2022/01/27 08:05:24;;;;;;;0.30;0.30;;;;;;;1.75;56.06;96124.41;5094098;28;20475;-53
2022/01/27 08:07:52;;;;;;;1.27;1.23;;;;;;;1.65;56.36;96100.44;5094137;28;20436;-54
2022/01/27 08:10:21;;;;;;;0.50;0.50;;;;;;;0.93;54.38;95957.31;5093893;28;20432;-54
2022/01/27 08:12:49;;;;;;;1.40;1.30;;;;;;;1.68;56.13;96129.63;5093640;28;20439;-54
2022/01/27 08:15:22;;;;;;;0.30;0.30;;;;;;;1.81;55.50;96107.97;5093713;28;20450;-54
2022/01/27 08:18:09;;;;;;;1.77;1.70;;;;;;;1.92;55.09;96102.97;5093324;28;20444;-54
2022/01/27 08:20:38;;;;;;;0.30;0.30;;;;;;;1.90;55.19;96125.88;5093193;28;20475;-54
2022/01/27 08:23:07;;;;;;;2.57;2.37;;;;;;;1.75;56.46;96122.59;5093655;28;20471;-54
2022/01/27 08:25:36;;;;;;;0.73;0.73;;;;;;;2.18;55.22;96117.13;5093498;28;20566;-54
2022/01/27 08:28:07;;;;;;;1.17;1.17;;;;;;;0.46;54.26;95826.84;5093279;28;20453;-54
2022/01/27 08:33:31;;;;;;;0.37;0.37;;;;;;;3.22;52.39;96125.06;5093040;28;20436;-54
2022/01/27 08:36:00;;;;;;;0.77;0.77;;;;;;;3.48;51.13;96116.34;5093234;28;20421;-54
2022/01/27 08:38:30;;;;;;;0.50;0.50;;;;;;;2.53;55.73;96110.75;5093090;28;20486;-55
2022/01/27 08:41:01;;;;;;;2.47;2.37;;;;;;;3.19;54.32;96119.41;5092982;28;20429;-54
2022/01/27 08:43:29;;;;;;;1.63;1.53;;;;;;;4.36;52.26;96114.78;5093159;28;20868;-54
2022/01/27 08:46:00;;;;;;;0.73;0.73;;;;;;;5.07;48.96;96110.84;5092619;28;20913;-54
2022/01/27 08:48:38;;;;;;;0.90;0.90;;;;;;;6.27;44.64;96106.72;5092992;28;20471;-53
2022/01/27 08:51:21;;;;;;;0.73;0.73;;;;;;;6.37;42.81;95962.97;5092747;28;20429;-52
2022/01/27 08:54:05;;;;;;;7.47;2.33;;;;;;;7.98;40.15;95975.34;5093049;28;20780;-52
2022/01/27 08:56:35;;;;;;;1.33;1.33;;;;;;;9.39;38.71;96067.53;5092687;28;20471;-52
2022/01/27 08:59:06;;;;;;;1.67;1.57;;;;;;;9.72;38.13;96096.56;5092667;28;20477;-52
2022/01/27 09:01:34;;;;;;;0.87;0.87;;;;;;;10.69;36.19;96088.72;5092589;28;20432;-53
2022/01/27 09:04:05;;;;;;;3.40;1.47;;;;;;;10.84;33.78;96080.91;5093043;28;20458;-51
2022/01/27 09:06:34;;;;;;;7.93;2.20;;;;;;;11.23;33.77;96079.63;5092789;28;20499;-53
2022/01/27 09:09:03;;;;;;;2.70;1.30;;;;;;;11.51;33.51;96075.84;5092532;28;20456;-54
2022/01/27 09:11:34;;;;;;;2.07;1.87;;;;;;;12.55;31.52;96055.31;5092697;28;20436;-55
2022/01/27 09:14:05;;;;;;;2.70;2.60;;;;;;;12.87;30.96;96068.41;5092823;28;20428;-55
2022/01/27 09:16:35;;;;;;;1.67;1.57;;;;;;;12.56;30.44;96046.28;5092661;28;20425;-57
2022/01/27 09:19:26;;;;;;;3.87;1.50;;;;;;;13.68;29.98;96058.53;5091035;28;21046;-59
2022/01/27 09:21:56;;;;;;;7.40;2.83;;;;;;;13.24;28.61;96017.59;5092388;28;20482;-60
2022/01/27 09:24:36;;;;;;;1.77;1.67;;;;;;;13.23;28.87;96061.25;5092215;28;20486;-60
2022/01/27 09:27:06;;;;;;;2.43;2.33;;;;;;;12.95;29.60;95952.66;5092497;28;20460;-60
2022/01/27 09:29:35;;;;;;;3.30;2.67;;;;;;;13.07;29.11;96062.31;5091835;28;20433;-60
2022/01/27 09:32:05;;;;;;;3.50;3.20;;;;;;;12.96;28.73;96028.75;5092403;28;20432;-59
2022/01/27 09:34:35;;;;;;;1.90;1.80;;;;;;;13.59;28.15;96036.16;5092396;28;20467;-59
2022/01/27 09:37:05;;;;;;;2.30;1.80;;;;;;;12.77;29.06;95991.25;5092512;28;20420;-59
2022/01/27 09:39:40;;;;;;;1.17;0.90;;;;;;;13.82;27.38;95989.47;5091933;28;20924;-59
2022/01/27 09:42:14;;;;;;;19.43;1.57;;;;;;;14.26;27.30;96040.19;5092061;28;20481;-57
2022/01/27 09:44:47;;;;;;;1.50;1.40;;;;;;;13.49;26.19;95804.50;5092309;28;20455;-57
2022/01/27 09:47:17;;;;;;;7.00;1.13;;;;;;;14.39;26.31;95984.41;5091801;28;20850;-56
2022/01/27 09:49:53;;;;;;;4.10;0.60;;;;;;;15.63;25.66;96030.13;5092414;28;20413;-56
2022/01/27 09:52:22;;;;;;;0.80;0.80;;;;;;;15.79;25.37;96018.16;5092077;28;20519;-56
2022/01/27 09:54:51;;;;;;;0.80;0.80;;;;;;;15.11;25.43;96014.81;5091946;28;20507;-55
2022/01/27 09:57:21;;;;;;;3.23;0.60;;;;;;;15.38;26.18;95998.28;5091842;28;20490;-55
2022/01/27 09:59:49;;;;;;;1.67;1.57;;;;;;;15.15;25.12;95997.16;5092372;28;20421;-55
2022/01/27 10:02:22;;;;;;;1.67;1.57;;;;;;;15.08;25.56;95996.69;5091600;28;20524;-55
2022/01/27 10:04:54;;;;;;;2.73;2.53;;;;;;;14.53;25.73;95987.25;5091918;28;20430;-55
2022/01/27 10:07:26;;;;;;;1.77;1.67;;;;;;;15.15;25.49;95987.25;5091848;28;20839;-55
2022/01/27 10:09:59;;;;;;;1.13;1.13;;;;;;;15.10;25.28;95979.31;5091830;28;20436;-54
2022/01/27 10:12:31;;;;;;;1.20;1.20;;;;;;;15.56;24.67;95979.66;5091879;28;20425;-56
2022/01/27 10:15:03;;;;;;;3.43;1.30;;;;;;;14.85;25.32;95981.41;5091728;28;20497;-54
2022/01/27 10:17:37;;;;;;;1.77;1.67;;;;;;;15.64;25.03;95973.72;5091738;28;20478;-55
2022/01/27 10:20:17;;;;;;;2.40;0.70;;;;;;;15.97;23.87;95971.16;5091628;28;20448;-55
2022/01/27 10:23:10;;;;;;;1.10;1.00;;;;;;;15.40;24.32;95863.38;5091233;28;20503;-55
2022/01/27 10:25:46;;;;;;;1.00;0.90;;;;;;;17.18;23.13;95966.72;5091476;28;20448;-55
2022/01/27 10:28:40;;;;;;;1.27;1.27;;;;;;;16.33;23.80;95964.28;5090945;28;20428;-55
2022/01/27 10:31:10;;;;;;;1.00;1.00;;;;;;;17.14;22.88;95966.50;5091600;28;21101;-54
2022/01/27 10:33:47;;;;;;;1.53;1.43;;;;;;;16.00;23.65;95960.72;5091501;28;20432;-56
2022/01/27 10:36:22;;;;;;;3.90;1.70;;;;;;;14.82;25.07;95960.63;5090799;28;20466;-55
2022/01/27 10:38:53;;;;;;;1.17;1.17;;;;;;;12.87;26.90;95977.16;5091479;28;20834;-55
2022/01/27 10:41:22;;;;;;;0.83;0.83;;;;;;;13.44;26.51;95971.47;5091029;28;20497;-56
2022/01/27 10:43:50;;;;;;;1.00;1.00;;;;;;;12.79;26.92;95969.69;5091784;28;20475;-55
2022/01/27 10:46:25;;;;;;;2.60;0.93;;;;;;;13.89;26.11;95960.66;5090995;28;20529;-54
2022/01/27 10:49:00;;;;;;;1.50;1.40;;;;;;;15.58;24.15;95947.34;5090418;28;20428;-53
2022/01/27 10:51:42;;;;;;;14.40;0.80;;;;;;;15.22;23.91;95939.69;5091415;28;20952;-58
2022/01/27 10:54:20;;;;;;;7.60;0.80;;;;;;;15.14;24.12;95921.59;5091069;28;20968;-57
2022/01/27 10:56:49;;;;;;;1.90;1.27;;;;;;;15.70;23.38;95929.00;5091313;28;20432;-53
2022/01/27 10:59:20;;;;;;;0.47;0.40;;;;;;;17.19;22.12;95918.19;5091309;28;20493;-53
2022/01/27 11:01:50;;;;;;;0.40;0.40;;;;;;;18.27;21.02;95916.53;5091745;28;20479;-54
2022/01/27 11:04:20;;;;;;;0.77;0.60;;;;;;;17.11;22.47;95857.25;5091342;28;20429;-54
2022/01/27 11:06:59;;;;;;;1.77;1.07;;;;;;;18.09;21.25;95918.28;5094536;28;20541;-55
2022/01/27 11:09:29;;;;;;;0.83;0.83;;;;;;;18.95;20.53;95879.47;5094907;28;20436;-54
2022/01/27 11:11:57;;;;;;;1.13;1.03;;;;;;;21.36;20.35;95900.19;5094849;28;20474;-54
2022/01/27 11:14:26;;;;;;;1.10;1.00;;;;;;;20.54;19.38;95905.09;5094961;28;20424;-54
2022/01/27 11:16:58;;;;;;;3.50;0.53;;;;;;;18.94;19.43;95901.28;5094705;28;20439;-54
2022/01/27 11:22:40;;;;;;;0.70;0.67;;;;;;;17.23;20.44;95895.06;5095593;27;20440;-55
2022/01/27 11:25:49;;;;;;;0.50;0.50;;;;;;;18.39;19.64;95893.44;5094562;28;20470;-54
2022/01/27 11:28:03;;;;;;;0.67;0.63;;;;;;;18.65;19.25;95882.91;5093968;28;20514;-54
2022/01/27 11:30:58;;;;;;;0.60;0.40;;;;;;;18.61;19.43;95890.00;5094445;28;20890;-55
2022/01/27 11:33:32;;;;;;;1.13;0.37;;;;;;;19.43;18.78;95873.41;5093894;28;20925;-54
2022/01/27 11:36:09;;;;;;;3.53;0.60;;;;;;;18.90;18.51;95776.72;5094306;28;20481;-54
2022/01/27 11:38:42;;;;;;;4.47;0.50;;;;;;;20.00;19.19;95872.25;5094713;28;20868;-55
2022/01/27 11:41:39;;;;;;;0.40;0.30;;;;;;;20.66;17.53;95856.75;5094078;28;20473;-55
2022/01/27 11:44:32;;;;;;;1.80;0.80;;;;;;;19.85;17.94;95867.31;5094236;28;20468;-55
2022/01/27 11:47:20;;;;;;;0.73;0.73;;;;;;;19.74;18.03;95868.72;5094058;28;20495;-55
2022/01/27 11:49:56;;;;;;;0.50;0.43;;;;;;;20.58;19.50;95865.63;5094452;28;20428;-55
2022/01/27 11:52:28;;;;;;;3.10;0.60;;;;;;;19.43;19.42;95862.66;5094504;28;20424;-55
2022/01/27 11:55:20;;;;;;;6.80;1.00;;;;;;;19.59;18.60;95861.09;5094098;28;20433;-54
2022/01/27 11:57:48;;;;;;;0.50;0.50;;;;;;;19.26;19.61;95862.53;5093864;28;20440;-55
2022/01/27 12:00:19;;;;;;;0.83;0.83;;;;;;;20.13;18.46;95773.63;5093959;28;20428;-54
2022/01/27 12:03:10;;;;;;;1.57;1.47;;;;;;;19.19;17.83;95848.75;5094282;28;20417;-54
2022/01/27 12:05:41;;;;;;;1.43;0.83;;;;;;;18.48;18.39;95845.22;5093465;28;20515;-54
2022/01/27 12:08:25;;;;;;;0.40;0.40;;;;;;;18.12;19.29;95833.72;5093464;28;20479;-55
2022/01/27 12:11:46;;;;;;;0.40;0.20;;;;;;;19.55;18.52;95842.13;5093528;28;20540;-54
2022/01/27 12:14:17;;;;;;;0.50;0.30;;;;;;;19.59;18.75;95844.97;5093703;28;20416;-53
2022/01/27 12:17:05;;;;;;;0.77;0.77;;;;;;;20.52;17.43;95839.94;5092969;28;20523;-54
2022/01/27 12:19:48;;;;;;;1.17;0.47;;;;;;;20.84;17.90;95821.38;5093420;28;20440;-53
2022/01/27 12:22:17;;;;;;;0.40;0.40;;;;;;;21.01;16.77;95823.22;5093539;28;20432;-53
2022/01/27 12:24:53;;;;;;;0.40;0.30;;;;;;;19.53;18.60;95814.72;5093803;28;20485;-53
2022/01/27 12:27:24;;;;;;;0.40;0.40;;;;;;;19.66;18.59;95812.25;5093080;28;20503;-52
2022/01/27 12:30:13;;;;;;;0.50;0.50;;;;;;;17.69;18.99;95820.72;5093136;28;20455;-52
2022/01/27 12:32:42;;;;;;;0.83;0.70;;;;;;;15.78;21.18;95824.16;5093292;28;20432;-50
2022/01/27 12:35:13;;;;;;;0.40;0.33;;;;;;;15.38;21.15;95820.09;5092638;28;20511;-50
2022/01/27 12:37:43;;;;;;;0.40;0.30;;;;;;;15.17;21.18;95813.44;5093135;28;20492;-50
2022/01/27 12:40:18;;;;;;;0.40;0.30;;;;;;;15.09;21.67;95811.38;5093363;28;20436;-50
2022/01/27 12:42:57;;;;;;;0.40;0.30;;;;;;;14.58;21.97;95811.13;5093183;28;20424;-50